This is the latest recevied weather packets stored in our database for station/object KK6LZB. If no packets are shown the sender has not sent any weather packets the latest 10 day(s).
| Time | Temp. | Humidity | Pressure | Rain* | Wind** | Luminosity | Snow |
|---|---|---|---|---|---|---|---|
| 1778207299 | 15.56° C | 92% | 1016.7 hPa | 0 mm | - | 6 W/m² | - |
| 1778206995 | 16.11° C | 92% | 1016.7 hPa | 0 mm | - | 9 W/m² | - |
| 1778206693 | 16.11° C | 91% | 1016.7 hPa | 0 mm | - | 11 W/m² | - |
| 1778206388 | 16.67° C | 90% | 1016.6 hPa | 0 mm | - | 14 W/m² | - |
| 1778206084 | 16.67° C | 89% | 1016.6 hPa | 0 mm | - | 17 W/m² | - |
| 1778205783 | 16.67° C | 89% | 1016.5 hPa | 0 mm | - | 20 W/m² | - |
| 1778205479 | 17.22° C | 89% | 1016.5 hPa | 0 mm | - | 23 W/m² | - |
| 1778205177 | 17.22° C | 88% | 1016.5 hPa | 0 mm | - | 26 W/m² | - |
| 1778204873 | 17.22° C | 88% | 1016.6 hPa | 0 mm | - | 28 W/m² | - |
| 1778204570 | 17.22° C | 87% | 1016.5 hPa | 0 mm | - | 30 W/m² | - |
| 1778204266 | 17.78° C | 86% | 1016.5 hPa | 0 mm | - | 34 W/m² | - |
| 1778203962 | 17.78° C | 86% | 1016.4 hPa | 0 mm | - | 36 W/m² | - |
| 1778203660 | 18.33° C | 84% | 1016.4 hPa | 0 mm | - | 41 W/m² | - |
| 1778203357 | 18.33° C | 83% | 1016.5 hPa | 0 mm | - | 49 W/m² | - |
| 1778203055 | 18.33° C | 84% | 1016.5 hPa | 0 mm | - | 84 W/m² | - |
| 1778202752 | 18.89° C | 82% | 1016.5 hPa | 0 mm | - | 102 W/m² | - |
| 1778202449 | 18.89° C | 81% | 1016.4 hPa | 0 mm | - | 113 W/m² | - |
| 1778202147 | 18.89° C | 82% | 1016.7 hPa | 0 mm | - | 123 W/m² | - |
| 1778201844 | 20° C | 79% | 1016.3 hPa | 0 mm | - | 134 W/m² | - |
| 1778201540 | 19.44° C | 79% | 1016.4 hPa | 0 mm | - | 146 W/m² | - |
| 1778201236 | 19.44° C | 79% | 1016.4 hPa | 0 mm | - | 158 W/m² | - |
| 1778200932 | 20.56° C | 78% | 1016.3 hPa | 0 mm | - | 168 W/m² | - |
| 1778200629 | 20° C | 78% | 1016.3 hPa | 0 mm | - | 182 W/m² | - |
| 1778200327 | 19.44° C | 81% | 1016.3 hPa | 0 mm | - | 194 W/m² | - |
| 1778200023 | 20° C | 78% | 1016.4 hPa | 0 mm | - | 206 W/m² | - |
* Rain latest hour (hover to see other rain measurements)
** Current wind speed in m/s (hover to see current wind gust speed)